sensor_id;sensor_type;location;lat;lon;timestamp;temperature;humidity
13052;DHT22;6592;47.484;9.726;2022-11-13T00:00:56;6.90;99.90
13052;DHT22;6592;47.484;9.726;2022-11-13T00:03:24;6.90;99.90
13052;DHT22;6592;47.484;9.726;2022-11-13T00:05:58;7.00;99.90
13052;DHT22;6592;47.484;9.726;2022-11-13T00:08:26;6.90;99.90
13052;DHT22;6592;47.484;9.726;2022-11-13T00:11:00;6.90;99.90
13052;DHT22;6592;47.484;9.726;2022-11-13T00:13:28;6.80;99.90
13052;DHT22;6592;47.484;9.726;2022-11-13T00:15:57;6.80;99.90
13052;DHT22;6592;47.484;9.726;2022-11-13T00:18:25;6.80;99.90
13052;DHT22;6592;47.484;9.726;2022-11-13T00:20:53;6.80;99.90
13052;DHT22;6592;47.484;9.726;2022-11-13T00:23:21;6.80;99.90
13052;DHT22;6592;47.484;9.726;2022-11-13T00:25:49;6.90;99.90
13052;DHT22;6592;47.484;9.726;2022-11-13T00:28:19;6.80;99.90
13052;DHT22;6592;47.484;9.726;2022-11-13T00:30:47;6.80;99.90
13052;DHT22;6592;47.484;9.726;2022-11-13T00:33:15;6.80;99.90
13052;DHT22;6592;47.484;9.726;2022-11-13T00:36:03;6.40;99.90
13052;DHT22;6592;47.484;9.726;2022-11-13T00:38:31;6.80;99.90
13052;DHT22;6592;47.484;9.726;2022-11-13T00:41:00;6.80;99.90
13052;DHT22;6592;47.484;9.726;2022-11-13T00:43:30;6.80;99.90
13052;DHT22;6592;47.484;9.726;2022-11-13T00:45:58;6.80;99.90
13052;DHT22;6592;47.484;9.726;2022-11-13T00:48:26;6.80;99.90
13052;DHT22;6592;47.484;9.726;2022-11-13T00:50:54;6.80;99.90
13052;DHT22;6592;47.484;9.726;2022-11-13T00:53:22;6.70;99.90
13052;DHT22;6592;47.484;9.726;2022-11-13T00:55:50;6.80;99.90
13052;DHT22;6592;47.484;9.726;2022-11-13T00:58:18;6.70;99.90
13052;DHT22;6592;47.484;9.726;2022-11-13T01:00:48;6.80;99.90
13052;DHT22;6592;47.484;9.726;2022-11-13T01:03:16;6.70;99.90
13052;DHT22;6592;47.484;9.726;2022-11-13T01:05:44;6.70;99.90
13052;DHT22;6592;47.484;9.726;2022-11-13T01:08:13;6.60;99.90
13052;DHT22;6592;47.484;9.726;2022-11-13T01:10:42;6.70;99.90
13052;DHT22;6592;47.484;9.726;2022-11-13T01:13:17;6.60;99.90
13052;DHT22;6592;47.484;9.726;2022-11-13T01:15:45;6.60;99.90
13052;DHT22;6592;47.484;9.726;2022-11-13T01:18:14;6.60;99.90
13052;DHT22;6592;47.484;9.726;2022-11-13T01:20:43;6.60;99.90
13052;DHT22;6592;47.484;9.726;2022-11-13T01:23:11;6.60;99.90
13052;DHT22;6592;47.484;9.726;2022-11-13T01:25:39;6.60;99.90
13052;DHT22;6592;47.484;9.726;2022-11-13T01:28:07;6.60;99.90
13052;DHT22;6592;47.484;9.726;2022-11-13T01:30:37;6.80;99.90
13052;DHT22;6592;47.484;9.726;2022-11-13T01:33:05;6.60;99.90
13052;DHT22;6592;47.484;9.726;2022-11-13T01:35:34;6.60;99.90
13052;DHT22;6592;47.484;9.726;2022-11-13T01:38:02;6.50;99.90
13052;DHT22;6592;47.484;9.726;2022-11-13T01:40:30;6.50;99.90
13052;DHT22;6592;47.484;9.726;2022-11-13T01:43:08;6.50;99.90
13052;DHT22;6592;47.484;9.726;2022-11-13T01:48:23;6.40;99.90
13052;DHT22;6592;47.484;9.726;2022-11-13T01:50:54;6.40;99.90
13052;DHT22;6592;47.484;9.726;2022-11-13T01:53:23;6.40;99.90
13052;DHT22;6592;47.484;9.726;2022-11-13T01:55:52;6.40;99.90
13052;DHT22;6592;47.484;9.726;2022-11-13T01:58:20;6.30;99.90
13052;DHT22;6592;47.484;9.726;2022-11-13T02:00:48;6.30;99.90
13052;DHT22;6592;47.484;9.726;2022-11-13T02:03:15;6.30;99.90
13052;DHT22;6592;47.484;9.726;2022-11-13T02:05:43;6.30;99.90
13052;DHT22;6592;47.484;9.726;2022-11-13T02:08:13;6.20;99.90
13052;DHT22;6592;47.484;9.726;2022-11-13T02:10:41;6.20;99.90
13052;DHT22;6592;47.484;9.726;2022-11-13T02:13:09;6.20;99.90
13052;DHT22;6592;47.484;9.726;2022-11-13T02:15:38;6.20;99.90
13052;DHT22;6592;47.484;9.726;2022-11-13T02:18:06;6.20;99.90
13052;DHT22;6592;47.484;9.726;2022-11-13T02:20:36;6.20;99.90
13052;DHT22;6592;47.484;9.726;2022-11-13T02:23:08;6.10;99.90
13052;DHT22;6592;47.484;9.726;2022-11-13T02:25:39;6.10;99.90
13052;DHT22;6592;47.484;9.726;2022-11-13T02:28:08;6.10;99.90
13052;DHT22;6592;47.484;9.726;2022-11-13T02:30:36;6.10;99.90
13052;DHT22;6592;47.484;9.726;2022-11-13T02:33:16;6.10;99.90
13052;DHT22;6592;47.484;9.726;2022-11-13T02:35:46;6.10;99.90
13052;DHT22;6592;47.484;9.726;2022-11-13T02:38:14;6.10;99.90
13052;DHT22;6592;47.484;9.726;2022-11-13T02:40:43;6.10;99.90
13052;DHT22;6592;47.484;9.726;2022-11-13T02:43:11;6.10;99.90
13052;DHT22;6592;47.484;9.726;2022-11-13T02:45:39;6.20;99.90
13052;DHT22;6592;47.484;9.726;2022-11-13T02:48:07;6.20;99.90
13052;DHT22;6592;47.484;9.726;2022-11-13T02:50:35;6.20;99.90
13052;DHT22;6592;47.484;9.726;2022-11-13T02:53:04;6.20;99.90
13052;DHT22;6592;47.484;9.726;2022-11-13T02:55:32;6.30;99.90
13052;DHT22;6592;47.484;9.726;2022-11-13T02:58:01;6.30;99.90
13052;DHT22;6592;47.484;9.726;2022-11-13T03:00:29;6.30;99.90
13052;DHT22;6592;47.484;9.726;2022-11-13T03:02:57;6.30;99.90
13052;DHT22;6592;47.484;9.726;2022-11-13T03:05:25;6.30;99.90
13052;DHT22;6592;47.484;9.726;2022-11-13T03:07:53;6.30;99.90
13052;DHT22;6592;47.484;9.726;2022-11-13T03:10:21;6.30;99.90
13052;DHT22;6592;47.484;9.726;2022-11-13T03:12:49;6.30;99.90
13052;DHT22;6592;47.484;9.726;2022-11-13T03:15:19;6.30;99.90
13052;DHT22;6592;47.484;9.726;2022-11-13T03:17:47;6.30;99.90
13052;DHT22;6592;47.484;9.726;2022-11-13T03:20:15;6.30;99.90
13052;DHT22;6592;47.484;9.726;2022-11-13T03:22:43;6.30;99.90
13052;DHT22;6592;47.484;9.726;2022-11-13T03:25:11;6.30;99.90
13052;DHT22;6592;47.484;9.726;2022-11-13T03:27:39;6.40;99.90
13052;DHT22;6592;47.484;9.726;2022-11-13T03:30:07;6.40;99.90
13052;DHT22;6592;47.484;9.726;2022-11-13T03:32:37;6.50;99.90
13052;DHT22;6592;47.484;9.726;2022-11-13T03:35:05;6.50;99.90
13052;DHT22;6592;47.484;9.726;2022-11-13T03:37:33;6.50;99.90
13052;DHT22;6592;47.484;9.726;2022-11-13T03:40:01;6.50;99.90
13052;DHT22;6592;47.484;9.726;2022-11-13T03:42:29;6.60;99.90
13052;DHT22;6592;47.484;9.726;2022-11-13T03:44:57;6.60;99.90
13052;DHT22;6592;47.484;9.726;2022-11-13T03:47:25;6.50;99.90
13052;DHT22;6592;47.484;9.726;2022-11-13T03:49:54;6.50;99.90
13052;DHT22;6592;47.484;9.726;2022-11-13T03:52:22;6.50;99.90
13052;DHT22;6592;47.484;9.726;2022-11-13T03:54:53;6.50;99.90
13052;DHT22;6592;47.484;9.726;2022-11-13T03:57:21;6.50;99.90
13052;DHT22;6592;47.484;9.726;2022-11-13T03:59:49;6.60;99.90
13052;DHT22;6592;47.484;9.726;2022-11-13T04:02:17;6.60;99.90
13052;DHT22;6592;47.484;9.726;2022-11-13T04:04:44;6.40;99.90
13052;DHT22;6592;47.484;9.726;2022-11-13T04:07:14;6.60;99.90
13052;DHT22;6592;47.484;9.726;2022-11-13T04:09:42;6.60;99.90
13052;DHT22;6592;47.484;9.726;2022-11-13T04:12:10;6.70;99.90
13052;DHT22;6592;47.484;9.726;2022-11-13T04:14:38;6.70;99.90
13052;DHT22;6592;47.484;9.726;2022-11-13T04:17:06;6.80;99.90
13052;DHT22;6592;47.484;9.726;2022-11-13T04:19:34;6.80;99.90
13052;DHT22;6592;47.484;9.726;2022-11-13T04:22:01;6.90;99.90
13052;DHT22;6592;47.484;9.726;2022-11-13T04:24:31;6.90;99.90
13052;DHT22;6592;47.484;9.726;2022-11-13T04:26:59;7.00;99.90
13052;DHT22;6592;47.484;9.726;2022-11-13T04:29:27;7.00;99.90
13052;DHT22;6592;47.484;9.726;2022-11-13T04:31:55;7.00;99.90
13052;DHT22;6592;47.484;9.726;2022-11-13T04:34:23;7.00;99.90
13052;DHT22;6592;47.484;9.726;2022-11-13T04:36:52;7.10;99.90
13052;DHT22;6592;47.484;9.726;2022-11-13T04:39:20;7.10;99.90
13052;DHT22;6592;47.484;9.726;2022-11-13T04:41:49;7.10;99.90
13052;DHT22;6592;47.484;9.726;2022-11-13T04:44:34;7.10;99.90
13052;DHT22;6592;47.484;9.726;2022-11-13T04:47:02;7.10;99.90
13052;DHT22;6592;47.484;9.726;2022-11-13T04:49:30;7.20;99.90
13052;DHT22;6592;47.484;9.726;2022-11-13T04:51:58;7.10;99.90
13052;DHT22;6592;47.484;9.726;2022-11-13T04:54:26;7.20;99.90
13052;DHT22;6592;47.484;9.726;2022-11-13T04:56:56;7.20;99.90
13052;DHT22;6592;47.484;9.726;2022-11-13T04:59:24;7.20;99.90
13052;DHT22;6592;47.484;9.726;2022-11-13T05:01:52;7.10;99.90
13052;DHT22;6592;47.484;9.726;2022-11-13T05:04:21;7.10;99.90
13052;DHT22;6592;47.484;9.726;2022-11-13T05:06:49;7.10;99.90
13052;DHT22;6592;47.484;9.726;2022-11-13T05:09:17;7.00;99.90
13052;DHT22;6592;47.484;9.726;2022-11-13T05:11:45;7.00;99.90
13052;DHT22;6592;47.484;9.726;2022-11-13T05:14:14;7.00;99.90
13052;DHT22;6592;47.484;9.726;2022-11-13T05:16:42;7.00;99.90
13052;DHT22;6592;47.484;9.726;2022-11-13T05:19:10;6.90;99.90
13052;DHT22;6592;47.484;9.726;2022-11-13T05:21:38;6.90;99.90
13052;DHT22;6592;47.484;9.726;2022-11-13T05:24:08;6.90;99.90
13052;DHT22;6592;47.484;9.726;2022-11-13T05:26:36;6.90;99.90
13052;DHT22;6592;47.484;9.726;2022-11-13T05:29:05;6.90;99.90
13052;DHT22;6592;47.484;9.726;2022-11-13T05:31:34;6.80;99.90
13052;DHT22;6592;47.484;9.726;2022-11-13T05:34:03;6.80;99.90
13052;DHT22;6592;47.484;9.726;2022-11-13T05:36:31;6.80;99.90
13052;DHT22;6592;47.484;9.726;2022-11-13T05:39:00;7.00;99.90
13052;DHT22;6592;47.484;9.726;2022-11-13T05:41:28;6.90;99.90
13052;DHT22;6592;47.484;9.726;2022-11-13T05:43:56;6.90;99.90
13052;DHT22;6592;47.484;9.726;2022-11-13T05:46:25;6.90;99.90
13052;DHT22;6592;47.484;9.726;2022-11-13T05:48:55;6.90;99.90
13052;DHT22;6592;47.484;9.726;2022-11-13T05:51:24;6.80;99.90
13052;DHT22;6592;47.484;9.726;2022-11-13T05:53:52;6.80;99.90
13052;DHT22;6592;47.484;9.726;2022-11-13T05:56:21;6.70;99.90
13052;DHT22;6592;47.484;9.726;2022-11-13T05:58:50;6.70;99.90
13052;DHT22;6592;47.484;9.726;2022-11-13T06:01:20;6.70;99.90
13052;DHT22;6592;47.484;9.726;2022-11-13T06:03:48;6.60;99.90
13052;DHT22;6592;47.484;9.726;2022-11-13T06:06:19;6.60;99.90
13052;DHT22;6592;47.484;9.726;2022-11-13T06:08:48;6.50;99.90
13052;DHT22;6592;47.484;9.726;2022-11-13T06:11:17;6.50;99.90
13052;DHT22;6592;47.484;9.726;2022-11-13T06:13:45;6.50;99.90
13052;DHT22;6592;47.484;9.726;2022-11-13T06:16:14;6.50;99.90
13052;DHT22;6592;47.484;9.726;2022-11-13T06:18:43;6.50;99.90
13052;DHT22;6592;47.484;9.726;2022-11-13T06:21:13;6.50;99.90
13052;DHT22;6592;47.484;9.726;2022-11-13T06:23:42;6.60;99.90
13052;DHT22;6592;47.484;9.726;2022-11-13T06:26:11;6.60;99.90
13052;DHT22;6592;47.484;9.726;2022-11-13T06:28:39;6.50;99.90
13052;DHT22;6592;47.484;9.726;2022-11-13T06:31:08;6.40;99.90
13052;DHT22;6592;47.484;9.726;2022-11-13T06:33:36;6.30;99.90
13052;DHT22;6592;47.484;9.726;2022-11-13T06:36:05;6.50;99.90
13052;DHT22;6592;47.484;9.726;2022-11-13T06:38:35;6.50;99.90
13052;DHT22;6592;47.484;9.726;2022-11-13T06:41:05;6.50;99.90
13052;DHT22;6592;47.484;9.726;2022-11-13T06:43:33;6.50;99.90
13052;DHT22;6592;47.484;9.726;2022-11-13T06:46:02;6.50;99.90
13052;DHT22;6592;47.484;9.726;2022-11-13T06:48:30;6.60;99.90
13052;DHT22;6592;47.484;9.726;2022-11-13T06:51:01;6.50;99.90
13052;DHT22;6592;47.484;9.726;2022-11-13T06:53:30;6.50;99.90
13052;DHT22;6592;47.484;9.726;2022-11-13T06:55:58;6.50;99.90
13052;DHT22;6592;47.484;9.726;2022-11-13T06:58:28;6.50;99.90
13052;DHT22;6592;47.484;9.726;2022-11-13T07:00:57;6.40;99.90
13052;DHT22;6592;47.484;9.726;2022-11-13T07:03:25;6.40;99.90
13052;DHT22;6592;47.484;9.726;2022-11-13T07:05:53;6.40;99.90
13052;DHT22;6592;47.484;9.726;2022-11-13T07:08:21;6.40;99.90
13052;DHT22;6592;47.484;9.726;2022-11-13T07:10:52;6.40;99.90
13052;DHT22;6592;47.484;9.726;2022-11-13T07:13:21;6.40;99.90
13052;DHT22;6592;47.484;9.726;2022-11-13T07:15:50;6.30;99.90
13052;DHT22;6592;47.484;9.726;2022-11-13T07:18:18;6.30;99.90
13052;DHT22;6592;47.484;9.726;2022-11-13T07:20:49;6.30;99.90
13052;DHT22;6592;47.484;9.726;2022-11-13T07:23:17;6.20;99.90
13052;DHT22;6592;47.484;9.726;2022-11-13T07:25:45;6.20;99.90
13052;DHT22;6592;47.484;9.726;2022-11-13T07:28:13;6.30;99.90
13052;DHT22;6592;47.484;9.726;2022-11-13T07:30:41;6.30;99.90
13052;DHT22;6592;47.484;9.726;2022-11-13T07:33:11;6.30;99.90
13052;DHT22;6592;47.484;9.726;2022-11-13T07:35:38;6.30;99.90
13052;DHT22;6592;47.484;9.726;2022-11-13T07:38:06;6.30;99.90
13052;DHT22;6592;47.484;9.726;2022-11-13T07:40:34;6.30;99.90
13052;DHT22;6592;47.484;9.726;2022-11-13T07:43:02;6.30;99.90
13052;DHT22;6592;47.484;9.726;2022-11-13T07:45:30;6.30;99.90
13052;DHT22;6592;47.484;9.726;2022-11-13T07:47:59;6.20;99.90
13052;DHT22;6592;47.484;9.726;2022-11-13T07:50:30;6.00;99.90
13052;DHT22;6592;47.484;9.726;2022-11-13T07:52:58;6.20;99.90
13052;DHT22;6592;47.484;9.726;2022-11-13T07:55:27;6.20;99.90
13052;DHT22;6592;47.484;9.726;2022-11-13T07:57:55;6.10;99.90
13052;DHT22;6592;47.484;9.726;2022-11-13T08:00:23;6.20;99.90
13052;DHT22;6592;47.484;9.726;2022-11-13T08:02:51;6.10;99.90
13052;DHT22;6592;47.484;9.726;2022-11-13T08:05:20;6.20;99.90
13052;DHT22;6592;47.484;9.726;2022-11-13T08:07:50;6.20;99.90
13052;DHT22;6592;47.484;9.726;2022-11-13T08:10:18;6.20;99.90
13052;DHT22;6592;47.484;9.726;2022-11-13T08:12:46;6.30;99.90
13052;DHT22;6592;47.484;9.726;2022-11-13T08:15:14;6.30;99.90
13052;DHT22;6592;47.484;9.726;2022-11-13T08:17:42;6.30;99.90
13052;DHT22;6592;47.484;9.726;2022-11-13T08:20:10;6.30;99.90
13052;DHT22;6592;47.484;9.726;2022-11-13T08:22:38;6.30;99.90
13052;DHT22;6592;47.484;9.726;2022-11-13T08:25:08;6.30;99.90
13052;DHT22;6592;47.484;9.726;2022-11-13T08:27:36;6.30;99.90
13052;DHT22;6592;47.484;9.726;2022-11-13T08:30:04;6.30;99.90
13052;DHT22;6592;47.484;9.726;2022-11-13T08:32:32;6.20;99.90
13052;DHT22;6592;47.484;9.726;2022-11-13T08:35:00;6.40;99.90
13052;DHT22;6592;47.484;9.726;2022-11-13T08:37:28;6.40;99.90
13052;DHT22;6592;47.484;9.726;2022-11-13T08:39:56;6.40;99.90
13052;DHT22;6592;47.484;9.726;2022-11-13T08:42:25;6.50;99.90
13052;DHT22;6592;47.484;9.726;2022-11-13T08:44:53;6.40;99.90
13052;DHT22;6592;47.484;9.726;2022-11-13T08:47:21;6.60;99.90
13052;DHT22;6592;47.484;9.726;2022-11-13T08:49:55;6.70;99.90
13052;DHT22;6592;47.484;9.726;2022-11-13T08:52:23;6.80;99.90
13052;DHT22;6592;47.484;9.726;2022-11-13T08:54:51;6.90;99.90
13052;DHT22;6592;47.484;9.726;2022-11-13T08:57:20;7.00;99.90
13052;DHT22;6592;47.484;9.726;2022-11-13T08:59:49;7.00;99.90
13052;DHT22;6592;47.484;9.726;2022-11-13T09:02:17;6.90;99.90
13052;DHT22;6592;47.484;9.726;2022-11-13T09:04:45;6.70;99.90
13052;DHT22;6592;47.484;9.726;2022-11-13T09:07:13;6.70;99.90
13052;DHT22;6592;47.484;9.726;2022-11-13T09:09:41;6.80;99.90
13052;DHT22;6592;47.484;9.726;2022-11-13T09:12:09;7.00;99.90
13052;DHT22;6592;47.484;9.726;2022-11-13T09:14:37;7.10;99.90
13052;DHT22;6592;47.484;9.726;2022-11-13T09:17:07;7.30;99.90
13052;DHT22;6592;47.484;9.726;2022-11-13T09:19:35;7.40;99.90
13052;DHT22;6592;47.484;9.726;2022-11-13T09:22:03;7.50;99.90
13052;DHT22;6592;47.484;9.726;2022-11-13T09:24:30;7.70;99.90
13052;DHT22;6592;47.484;9.726;2022-11-13T09:26:58;7.70;99.90
13052;DHT22;6592;47.484;9.726;2022-11-13T09:29:27;7.80;99.90
13052;DHT22;6592;47.484;9.726;2022-11-13T09:31:55;7.90;99.90
13052;DHT22;6592;47.484;9.726;2022-11-13T09:34:25;7.90;99.90
13052;DHT22;6592;47.484;9.726;2022-11-13T09:36:54;7.90;99.90
13052;DHT22;6592;47.484;9.726;2022-11-13T09:39:22;7.90;99.90
13052;DHT22;6592;47.484;9.726;2022-11-13T09:41:51;7.70;99.90
13052;DHT22;6592;47.484;9.726;2022-11-13T09:44:23;7.70;99.90
13052;DHT22;6592;47.484;9.726;2022-11-13T09:46:54;7.70;99.90
13052;DHT22;6592;47.484;9.726;2022-11-13T09:49:24;7.60;99.90
13052;DHT22;6592;47.484;9.726;2022-11-13T09:51:54;7.80;99.90
13052;DHT22;6592;47.484;9.726;2022-11-13T09:54:25;7.90;99.90
13052;DHT22;6592;47.484;9.726;2022-11-13T09:56:55;7.90;99.90
13052;DHT22;6592;47.484;9.726;2022-11-13T09:59:26;8.00;99.90
13052;DHT22;6592;47.484;9.726;2022-11-13T10:01:57;8.10;99.90
13052;DHT22;6592;47.484;9.726;2022-11-13T10:04:32;8.10;99.90
13052;DHT22;6592;47.484;9.726;2022-11-13T10:07:10;8.20;99.90
13052;DHT22;6592;47.484;9.726;2022-11-13T10:09:44;8.30;99.90
13052;DHT22;6592;47.484;9.726;2022-11-13T10:12:14;8.20;99.90
13052;DHT22;6592;47.484;9.726;2022-11-13T10:14:43;8.20;99.90
13052;DHT22;6592;47.484;9.726;2022-11-13T10:17:13;8.30;99.90
13052;DHT22;6592;47.484;9.726;2022-11-13T10:19:46;8.10;99.90
13052;DHT22;6592;47.484;9.726;2022-11-13T10:22:22;8.10;99.90
13052;DHT22;6592;47.484;9.726;2022-11-13T10:25:08;8.10;99.90
13052;DHT22;6592;47.484;9.726;2022-11-13T10:27:36;8.10;99.90
13052;DHT22;6592;47.484;9.726;2022-11-13T10:30:09;8.20;99.90
13052;DHT22;6592;47.484;9.726;2022-11-13T10:32:39;8.20;99.90
13052;DHT22;6592;47.484;9.726;2022-11-13T10:35:11;8.00;99.90
13052;DHT22;6592;47.484;9.726;2022-11-13T10:37:47;8.00;99.90
13052;DHT22;6592;47.484;9.726;2022-11-13T10:40:24;8.10;99.90
13052;DHT22;6592;47.484;9.726;2022-11-13T10:42:52;8.10;99.90
13052;DHT22;6592;47.484;9.726;2022-11-13T10:45:20;8.10;99.90
13052;DHT22;6592;47.484;9.726;2022-11-13T10:47:49;8.20;99.90
13052;DHT22;6592;47.484;9.726;2022-11-13T10:50:30;8.30;99.90
13052;DHT22;6592;47.484;9.726;2022-11-13T10:53:00;8.30;99.90
13052;DHT22;6592;47.484;9.726;2022-11-13T10:55:33;8.20;99.90
13052;DHT22;6592;47.484;9.726;2022-11-13T10:58:09;8.20;99.90
13052;DHT22;6592;47.484;9.726;2022-11-13T11:00:38;8.30;99.90
13052;DHT22;6592;47.484;9.726;2022-11-13T11:03:07;8.40;99.90
13052;DHT22;6592;47.484;9.726;2022-11-13T11:05:35;8.50;99.90
13052;DHT22;6592;47.484;9.726;2022-11-13T11:08:07;8.60;99.90
13052;DHT22;6592;47.484;9.726;2022-11-13T11:10:36;8.60;99.90
13052;DHT22;6592;47.484;9.726;2022-11-13T11:13:24;8.70;99.90
13052;DHT22;6592;47.484;9.726;2022-11-13T11:15:54;8.70;99.90
13052;DHT22;6592;47.484;9.726;2022-11-13T11:18:25;8.60;99.90
13052;DHT22;6592;47.484;9.726;2022-11-13T11:20:56;8.70;99.90
13052;DHT22;6592;47.484;9.726;2022-11-13T11:23:27;8.70;99.90
13052;DHT22;6592;47.484;9.726;2022-11-13T11:26:00;8.60;99.90
13052;DHT22;6592;47.484;9.726;2022-11-13T11:28:30;8.60;99.90
13052;DHT22;6592;47.484;9.726;2022-11-13T11:31:02;8.60;99.90
13052;DHT22;6592;47.484;9.726;2022-11-13T11:33:31;8.60;99.90
13052;DHT22;6592;47.484;9.726;2022-11-13T11:36:02;8.60;99.90
13052;DHT22;6592;47.484;9.726;2022-11-13T11:38:39;8.60;99.90
13052;DHT22;6592;47.484;9.726;2022-11-13T11:41:07;8.60;99.90
13052;DHT22;6592;47.484;9.726;2022-11-13T11:43:43;8.60;99.90
13052;DHT22;6592;47.484;9.726;2022-11-13T11:46:11;8.70;99.90
13052;DHT22;6592;47.484;9.726;2022-11-13T11:48:39;8.70;99.90
13052;DHT22;6592;47.484;9.726;2022-11-13T11:51:10;8.70;99.90
13052;DHT22;6592;47.484;9.726;2022-11-13T11:53:42;8.70;99.90
13052;DHT22;6592;47.484;9.726;2022-11-13T11:56:14;8.70;99.90
13052;DHT22;6592;47.484;9.726;2022-11-13T11:58:52;8.70;99.90
13052;DHT22;6592;47.484;9.726;2022-11-13T12:01:24;8.60;99.90
13052;DHT22;6592;47.484;9.726;2022-11-13T12:04:00;8.70;99.90
13052;DHT22;6592;47.484;9.726;2022-11-13T12:06:36;8.60;99.90
13052;DHT22;6592;47.484;9.726;2022-11-13T12:09:09;8.70;99.90
13052;DHT22;6592;47.484;9.726;2022-11-13T12:11:43;8.70;99.90
13052;DHT22;6592;47.484;9.726;2022-11-13T12:14:16;8.70;99.90
13052;DHT22;6592;47.484;9.726;2022-11-13T12:16:47;8.70;99.90
13052;DHT22;6592;47.484;9.726;2022-11-13T12:19:20;8.70;99.90
13052;DHT22;6592;47.484;9.726;2022-11-13T12:21:54;8.70;99.90
13052;DHT22;6592;47.484;9.726;2022-11-13T12:27:15;8.70;99.90
13052;DHT22;6592;47.484;9.726;2022-11-13T12:29:47;8.50;99.90
13052;DHT22;6592;47.484;9.726;2022-11-13T12:32:23;8.50;99.90
13052;DHT22;6592;47.484;9.726;2022-11-13T12:34:56;8.50;99.90
13052;DHT22;6592;47.484;9.726;2022-11-13T12:37:25;8.50;99.90
13052;DHT22;6592;47.484;9.726;2022-11-13T12:39:55;8.50;99.90
13052;DHT22;6592;47.484;9.726;2022-11-13T12:42:27;8.50;99.90
13052;DHT22;6592;47.484;9.726;2022-11-13T12:44:58;8.50;99.90
13052;DHT22;6592;47.484;9.726;2022-11-13T12:47:29;8.50;99.90
13052;DHT22;6592;47.484;9.726;2022-11-13T12:49:57;8.50;99.90
13052;DHT22;6592;47.484;9.726;2022-11-13T12:52:26;8.50;99.90
13052;DHT22;6592;47.484;9.726;2022-11-13T12:55:02;8.60;99.90
13052;DHT22;6592;47.484;9.726;2022-11-13T12:57:32;8.60;99.90
13052;DHT22;6592;47.484;9.726;2022-11-13T13:00:09;8.60;99.90
13052;DHT22;6592;47.484;9.726;2022-11-13T13:02:51;8.60;99.90
13052;DHT22;6592;47.484;9.726;2022-11-13T13:05:31;8.60;99.90
13052;DHT22;6592;47.484;9.726;2022-11-13T13:08:15;8.60;99.90
13052;DHT22;6592;47.484;9.726;2022-11-13T13:10:49;8.60;99.90
13052;DHT22;6592;47.484;9.726;2022-11-13T13:13:21;8.70;99.90
13052;DHT22;6592;47.484;9.726;2022-11-13T13:15:55;8.60;99.90
13052;DHT22;6592;47.484;9.726;2022-11-13T13:18:26;8.60;99.90
13052;DHT22;6592;47.484;9.726;2022-11-13T13:20:59;8.60;99.90
13052;DHT22;6592;47.484;9.726;2022-11-13T13:23:29;8.60;99.90
13052;DHT22;6592;47.484;9.726;2022-11-13T13:26:01;8.50;99.90
13052;DHT22;6592;47.484;9.726;2022-11-13T13:28:31;8.50;99.90
13052;DHT22;6592;47.484;9.726;2022-11-13T13:31:01;8.40;99.90
13052;DHT22;6592;47.484;9.726;2022-11-13T13:33:33;8.40;99.90
13052;DHT22;6592;47.484;9.726;2022-11-13T13:36:07;8.40;99.90
13052;DHT22;6592;47.484;9.726;2022-11-13T13:38:39;8.40;99.90
13052;DHT22;6592;47.484;9.726;2022-11-13T13:41:19;8.40;99.90
13052;DHT22;6592;47.484;9.726;2022-11-13T13:43:54;8.40;99.90
13052;DHT22;6592;47.484;9.726;2022-11-13T13:46:24;8.40;99.90
13052;DHT22;6592;47.484;9.726;2022-11-13T13:48:54;8.40;99.90
13052;DHT22;6592;47.484;9.726;2022-11-13T13:51:24;8.30;99.90
13052;DHT22;6592;47.484;9.726;2022-11-13T13:53:53;8.30;99.90
13052;DHT22;6592;47.484;9.726;2022-11-13T13:56:22;8.30;99.90
13052;DHT22;6592;47.484;9.726;2022-11-13T13:58:50;8.30;99.90
13052;DHT22;6592;47.484;9.726;2022-11-13T14:01:27;8.30;99.90
13052;DHT22;6592;47.484;9.726;2022-11-13T14:04:02;8.30;99.90
13052;DHT22;6592;47.484;9.726;2022-11-13T14:06:30;8.30;99.90
13052;DHT22;6592;47.484;9.726;2022-11-13T14:09:08;8.30;99.90
13052;DHT22;6592;47.484;9.726;2022-11-13T14:11:36;8.20;99.90
13052;DHT22;6592;47.484;9.726;2022-11-13T14:14:07;8.00;99.90
13052;DHT22;6592;47.484;9.726;2022-11-13T14:16:46;8.10;99.90
13052;DHT22;6592;47.484;9.726;2022-11-13T14:19:14;8.10;99.90
13052;DHT22;6592;47.484;9.726;2022-11-13T14:21:42;8.10;99.90
13052;DHT22;6592;47.484;9.726;2022-11-13T14:24:13;8.10;99.90
13052;DHT22;6592;47.484;9.726;2022-11-13T14:26:42;8.00;99.90
13052;DHT22;6592;47.484;9.726;2022-11-13T14:29:14;8.00;99.90
13052;DHT22;6592;47.484;9.726;2022-11-13T14:31:48;8.00;99.90
13052;DHT22;6592;47.484;9.726;2022-11-13T14:34:18;8.00;99.90
13052;DHT22;6592;47.484;9.726;2022-11-13T14:36:47;8.00;99.90
13052;DHT22;6592;47.484;9.726;2022-11-13T14:39:18;8.00;99.90
13052;DHT22;6592;47.484;9.726;2022-11-13T14:41:48;8.00;99.90
13052;DHT22;6592;47.484;9.726;2022-11-13T14:44:24;8.00;99.90
13052;DHT22;6592;47.484;9.726;2022-11-13T14:46:59;8.00;99.90
13052;DHT22;6592;47.484;9.726;2022-11-13T14:49:29;7.90;99.90
13052;DHT22;6592;47.484;9.726;2022-11-13T14:51:57;7.50;99.90
13052;DHT22;6592;47.484;9.726;2022-11-13T14:54:27;7.70;99.90
13052;DHT22;6592;47.484;9.726;2022-11-13T14:57:15;7.70;99.90
13052;DHT22;6592;47.484;9.726;2022-11-13T14:59:43;7.60;99.90
13052;DHT22;6592;47.484;9.726;2022-11-13T15:02:12;7.50;99.90
13052;DHT22;6592;47.484;9.726;2022-11-13T15:04:40;7.50;99.90
13052;DHT22;6592;47.484;9.726;2022-11-13T15:07:18;7.40;99.90
13052;DHT22;6592;47.484;9.726;2022-11-13T15:09:47;7.40;99.90
13052;DHT22;6592;47.484;9.726;2022-11-13T15:12:15;7.30;99.90
13052;DHT22;6592;47.484;9.726;2022-11-13T15:14:43;7.30;99.90
13052;DHT22;6592;47.484;9.726;2022-11-13T15:17:13;7.30;99.90
13052;DHT22;6592;47.484;9.726;2022-11-13T15:19:42;7.30;99.90
13052;DHT22;6592;47.484;9.726;2022-11-13T15:22:10;7.20;99.90
13052;DHT22;6592;47.484;9.726;2022-11-13T15:24:53;7.20;99.90
13052;DHT22;6592;47.484;9.726;2022-11-13T15:27:21;7.20;99.90
13052;DHT22;6592;47.484;9.726;2022-11-13T15:29:49;7.10;99.90
13052;DHT22;6592;47.484;9.726;2022-11-13T15:32:19;7.10;99.90
13052;DHT22;6592;47.484;9.726;2022-11-13T15:34:47;7.00;99.90
13052;DHT22;6592;47.484;9.726;2022-11-13T15:37:15;6.80;99.90
13052;DHT22;6592;47.484;9.726;2022-11-13T15:39:43;6.90;99.90
13052;DHT22;6592;47.484;9.726;2022-11-13T15:42:12;6.90;99.90
13052;DHT22;6592;47.484;9.726;2022-11-13T15:44:41;6.90;99.90
13052;DHT22;6592;47.484;9.726;2022-11-13T15:47:14;6.90;99.90
13052;DHT22;6592;47.484;9.726;2022-11-13T15:49:46;6.90;99.90
13052;DHT22;6592;47.484;9.726;2022-11-13T15:52:34;6.80;99.90
13052;DHT22;6592;47.484;9.726;2022-11-13T15:55:05;6.80;99.90
13052;DHT22;6592;47.484;9.726;2022-11-13T15:57:35;6.80;99.90
13052;DHT22;6592;47.484;9.726;2022-11-13T16:00:08;6.80;99.90
13052;DHT22;6592;47.484;9.726;2022-11-13T16:02:36;6.90;99.90
13052;DHT22;6592;47.484;9.726;2022-11-13T16:05:07;6.80;99.90
13052;DHT22;6592;47.484;9.726;2022-11-13T16:07:35;6.90;99.90
13052;DHT22;6592;47.484;9.726;2022-11-13T16:10:08;6.90;99.90
13052;DHT22;6592;47.484;9.726;2022-11-13T16:12:36;7.00;99.90
13052;DHT22;6592;47.484;9.726;2022-11-13T16:15:04;7.00;99.90
13052;DHT22;6592;47.484;9.726;2022-11-13T16:17:36;7.00;99.90
13052;DHT22;6592;47.484;9.726;2022-11-13T16:20:09;7.00;99.90
13052;DHT22;6592;47.484;9.726;2022-11-13T16:22:38;7.00;99.90
13052;DHT22;6592;47.484;9.726;2022-11-13T16:25:07;6.90;99.90